Banks, Mississippi
Current Conditions -  °F | °C
As of 12:15 AM on Thursday 29 Jan 2015 (Local Time) from KUTA Reporting Station
Clear Clear  
Wind Chill:   Ceiling: Unl
Heat Index:   Visibility: 10mi
Dew Point:   Wind: 9mph
Humidity: 66%   Direction: 180°S
Pressure: 30.09"   Gusts: NA
Location:  34.8092°N, 90.3159°W
Report Text: KUTA 290615Z AUTO 18008KT 10SM CLR 09/03 A3009 RMK AO2
Loading
Personal Weather Stations






























Interactive Weather Map New forecast layout! Learn more

10-Day Weather Forecast

Advertisements
Track Severe Weather on mobile